ハバロフスク の空港の天気 - METARとTAF

ハバロフスク空港 ( UHHH / KHV ) - ロシア ハバロフスク
飛行場実況気象(Metar)
観測時間06/18 05:30 VLAT (06/17 19:30 UTC)
風向・風速西南西 2m/s
視程10km以上
天気現象
なし
気温10℃
湿度87%
気圧1007hPa
METARUHHH 171930Z 24002MPS CAVOK 10/08 Q1007 R23L/090060 NOSIG RMK QFE749/0999
過去の天気等 Google飛行場航空写真 Wunderground天気予報

過去48時間のMETAR

飛行場予報(TAF)
発表時間: 6/18 05:24 VLAT (6/17 19:24 UTC)
予報対象時間: 18日5時 VLAT ~ 19日10時 VLAT
風向・風速西南西 3m/s
視程10km以上
なし
18日10時 VLAT ~ 18日19時 VLAT に一時的に
風向・風速西 6m/s
TAF AMD UHHH 171924Z 1719/1824 25003MPS CAVOK
TEMPO 1800/1809 27006MPS